»·PEaware :: N5205X KSMX-KBFL

N5205X :: KSMX-KBFL

FLIGHT INFORMATION

Flight Status: Arrived
Operator: Privately registered:
United States
More flights under this callsign
Pilot: Martin B. (29991)
Aircraft: CIRRUS SR-22 TURBO
(S22T)
More flights by this aircraft type
Origin: KSMX Santa Maria Pub/Capt Hancock
United States
Destination: KBFL Meadows
United States
More flights between these airports :: More routes between these airports
Route: FLX
File this flight plan on PilotEdge
Remarks:
Altitude:
(Current/Filed)
7,500ft
Speed:
(Current/Filed)
170kts
Departed: 06-Jan-21 08:30 AM
Arrived: 06-Jan-21 09:08 AM
Distance/Time
Traveled:
76nm/0:37
Distance/Time
To Go:
Arrived

Flight Plot

Page will automatically refresh every two minutes.

Flight plan parsing failed; only flown route is shown


Map Options




Map Legend


Flown Route
Filed Route
Departure Airport
Arrival Airport
Navaid (VOR, NDB)
Fix

Horizontal Profiles

Position Reports

Time Latitude Longitude Heading Altitude Ground
Speed
06-Jan-21 08:13 34.895988 -120.445065 314 264ft 0kts
06-Jan-21 08:14 34.895988 -120.445065 314 264ft 0kts
06-Jan-21 08:16 34.895988 -120.445065 314 264ft 0kts
06-Jan-21 08:17 34.895988 -120.445065 314 264ft 0kts
06-Jan-21 08:18 34.895988 -120.445066 314 264ft 0kts
06-Jan-21 08:19 34.895988 -120.445066 314 264ft 0kts
06-Jan-21 08:20 34.895988 -120.445066 314 264ft 0kts
06-Jan-21 08:21 34.895988 -120.445066 314 264ft 0kts
06-Jan-21 08:22 34.895988 -120.445066 314 264ft 0kts
06-Jan-21 08:23 34.895988 -120.445066 314 264ft 0kts
06-Jan-21 08:24 34.895988 -120.445066 314 264ft 0kts
06-Jan-21 08:25 34.895988 -120.445066 314 264ft 0kts
06-Jan-21 08:26 34.895988 -120.445066 314 264ft 0kts
06-Jan-21 08:27 34.894604 -120.445301 156 264ft 2kts
06-Jan-21 08:28 34.893291 -120.445072 189 264ft 0kts
06-Jan-21 08:28 34.893014 -120.445206 226 264ft 15kts
06-Jan-21 08:30 34.911785 -120.471610 313 1168ft 130kts
06-Jan-21 08:31 34.911349 -120.504195 204 2944ft 115kts
06-Jan-21 08:32 34.888086 -120.489667 85 4413ft 130kts
06-Jan-21 08:32 34.894946 -120.453774 50 5466ft 137kts
06-Jan-21 08:33 34.927721 -120.436620 67 6859ft 137kts
06-Jan-21 08:35 34.937775 -120.378308 100 7486ft 181kts
06-Jan-21 08:36 34.942823 -120.314714 77 7465ft 191kts
06-Jan-21 08:36 34.956649 -120.263562 70 7465ft 184kts
06-Jan-21 08:37 34.975183 -120.206273 69 7468ft 179kts
06-Jan-21 08:38 34.994262 -120.149882 68 7469ft 179kts
06-Jan-21 08:39 35.013577 -120.093789 68 7469ft 179kts
06-Jan-21 08:40 35.032973 -120.037717 67 7470ft 179kts
06-Jan-21 08:41 35.052356 -119.981766 67 7470ft 179kts
06-Jan-21 08:42 35.071718 -119.925891 67 7471ft 179kts
06-Jan-21 08:43 35.090925 -119.869837 68 7475ft 178kts
06-Jan-21 08:44 35.110261 -119.813876 66 7471ft 178kts
06-Jan-21 08:45 35.129690 -119.758098 67 7472ft 178kts
06-Jan-21 08:46 35.143859 -119.700483 81 7466ft 170kts
06-Jan-21 08:47 35.147084 -119.645191 91 7403ft 156kts
06-Jan-21 08:48 35.146015 -119.596460 92 6748ft 134kts
06-Jan-21 08:49 35.145863 -119.552137 91 6124ft 126kts
06-Jan-21 08:50 35.145943 -119.509952 92 5515ft 121kts
06-Jan-21 08:51 35.145733 -119.473278 94 5433ft 99kts
06-Jan-21 08:52 35.147316 -119.441435 92 5427ft 91kts
06-Jan-21 08:53 35.143965 -119.407439 95 5528ft 143kts
06-Jan-21 08:54 35.155968 -119.351866 31 5444ft 188kts
06-Jan-21 08:55 35.197593 -119.311183 40 5247ft 197kts
06-Jan-21 08:56 35.239303 -119.266582 41 4751ft 200kts
06-Jan-21 08:57 35.281084 -119.221836 41 4247ft 199kts
06-Jan-21 08:58 35.322865 -119.177021 41 3398ft 191kts
06-Jan-21 08:59 35.356748 -119.140746 41 2190ft 138kts
06-Jan-21 09:00 35.388770 -119.111341 15 1820ft 179kts
06-Jan-21 09:01 35.391664 -119.088919 172 1355ft 192kts
06-Jan-21 09:02 35.350402 -119.057436 126 1677ft 175kts
06-Jan-21 09:03 35.339975 -119.002089 71 2066ft 162kts
06-Jan-21 09:04 35.382073 -118.997329 338 1914ft 173kts
06-Jan-21 09:05 35.414367 -119.031944 313 924ft 123kts
06-Jan-21 09:06 35.431105 -119.052161 316 490ft 57kts
06-Jan-21 09:07 35.436533 -119.057938 33 495ft 0kts
06-Jan-21 09:08 35.436768 -119.055380 105 502ft 19kts
06-Jan-21 09:09 35.436536 -119.054635 217 503ft 0kts
06-Jan-21 09:10 35.436536 -119.054635 217 503ft 0kts
06-Jan-21 09:11 35.436536 -119.054635 217 503ft 0kts
06-Jan-21 09:12 35.436536 -119.054635 217 503ft 0kts
06-Jan-21 09:13 35.436536 -119.054635 217 503ft 0kts
06-Jan-21 09:14 35.436536 -119.054635 217 503ft 0kts
06-Jan-21 09:15 35.436536 -119.054635 217 503ft 0kts

Navigation Log

Ident Type
Flight plan parsing failed, navigation log unavailable